• Join FlightAware (Why Join?)
  • Login
  • US Flag 
12:28AM EST


 

Airport Tracker/Info


-or-


 

Live Flight TrackerFlight Track Log ✈ SKW5550 ✈ 19-Oct-2013 ✈ KCOD - KDEN

Flight Track Log - Related Links

Times and Time Zones

All times are in EDT time to prevent confusion due to time zone crossing. See the SKW5550 flight status page for this flight to view local times or setup timezone preferences in your user account.

Time Position Orientation Groundspeed Altitude Reporting Facility
EDT Latitude Longitude Course Direction KTS MPH feet Rate Location/Type
10:20AM 44.5028 -109.0553 156° South 135 155 6,500  Level Salt Lake Center
10:21AM 44.4581 -109.0389 165° South 247 284 8,100 1,920 Climbing Salt Lake Center
10:22AM 44.2238 -108.7218 157° South  Level Estimated
10:22AM 44.4908 -108.9728 55° Northeast 241 277 10,500  Level Salt Lake Center
10:23AM 44.1248 -108.6219 157° South  Level Estimated
10:23AM 44.5067 -108.8778 77° East 271 312 12,700  Level Salt Lake Center
10:24AM 44.0095 -108.5652 161° South  Level FlightAware Approximate
10:24AM 44.4036 -108.8275 161° South 326 375 14,500  Level Salt Lake Center
10:25AM 43.9109 -108.4649 156° South  Level Estimated
10:25AM 44.3103 -108.7864 163° South 349 402 16,400  Level Salt Lake Center
10:26AM 44.2167 -108.7328 158° South 361 415 18,100 1,560 Climbing Salt Lake Center
10:27AM 44.1217 -108.6783 158° South 366 421 19,700 1,320 Climbing Salt Lake Center
10:28AM 44.0228 -108.6203 157° South 380 437 20,900 1,260 Climbing Salt Lake Center
10:29AM 43.9200 -108.5617 158° South 397 457 22,300 1,320 Climbing Salt Lake Center
10:30AM 43.8164 -108.5028 158° South 404 465 23,700 1,260 Climbing Salt Lake Center
10:31AM 43.7108 -108.4414 157° South 411 473 24,900 1,020 Climbing Salt Lake Center
10:32AM 43.6047 -108.3806 157° South 414 476 25,900 1,020 Climbing Salt Lake Center
10:33AM 43.4733 -108.3081 158° South 425 489 27,100 1,020 Climbing Salt Lake Center
10:34AM 43.3781 -108.2097 143° Southeast 431 496 28,000 780 Climbing Salt Lake Center
10:35AM 43.2822 -108.1100 143° Southeast 433 498 28,800 720 Climbing Salt Lake Center
10:36AM 43.1861 -108.0061 142° Southeast 439 505 29,500 660 Climbing Salt Lake Center
10:37AM 43.0872 -107.9028 143° Southeast 445 512 30,200 600 Climbing Salt Lake Center
10:38AM 42.9878 -107.7958 142° Southeast 452 520 30,800 360 Climbing Salt Lake Center
10:39AM 42.8742 -107.6781 143° Southeast 457 526 31,000 60 Climbing Salt Lake Center
10:40AM 42.7725 -107.5731 143° Southeast 467 537 31,000  Level Salt Lake Center
10:41AM 42.6675 -107.4642 143° Southeast 483 556 31,000  Level Salt Lake Center
10:42AM 42.5431 -107.3350 143° Southeast 496 571 31,000  Level Salt Lake Center
10:43AM 42.4331 -107.2231 143° Southeast 508 585 31,000  Level Salt Lake Center
10:44AM 42.3417 -107.1278 142° Southeast 516 594 31,000  Level Denver Center
10:45AM 42.2306 -107.0153 143° Southeast 518 596 31,000  Level Denver Center
10:46AM 42.1014 -106.8872 144° Southeast 516 594 31,000  Level Denver Center
10:47AM 41.9914 -106.7775 143° Southeast 514 592 31,000  Level Denver Center
10:48AM 41.8639 -106.6517 144° Southeast 509 586 31,000  Level Denver Center
10:49AM 41.7544 -106.5436 144° Southeast 509 586 31,000  Level Denver Center
10:50AM 41.6322 -106.4253 144° Southeast 504 580 31,000  Level Denver Center
10:51AM 41.5247 -106.3203 144° Southeast 503 579 31,000  Level Denver Center
10:52AM 41.4003 -106.1983 144° Southeast 499 574 31,000  Level Denver Center
10:53AM 41.2931 -106.0961 144° Southeast 497 572 31,000  Level Denver Center
10:54AM 41.1678 -105.9756 144° Southeast 499 574 31,000 -780 Level Denver Center
10:55AM 41.0594 -105.8714 144° Southeast 501 577 29,400 -1,920 Descending Denver Center
10:56AM 40.9394 -105.7569 144° Southeast 507 583 27,100 -2,220 Descending Denver Center
10:57AM 40.8281 -105.6514 144° Southeast 496 571 24,900 -2,160 Descending Denver Center
10:58AM 40.7194 -105.5489 144° Southeast 483 556 22,700 -2,160 Descending Denver Center
11:00AM 40.5947 -105.4222 142° Southeast 473 544 20,400 -2,100 Descending Denver Center
11:01AM 40.5217 -105.2872 125° Southeast 456 525 18,400 -1,860 Descending Denver Center
11:02AM 40.4678 -105.1442 116° Southeast 435 501 16,600 -1,620 Descending Denver Center
11:03AM 40.4253 -104.9969 111° Southeast 430 495 15,100 -1,260 Descending Denver Center
11:04AM 40.3728 -104.8528 116° Southeast 409 471 14,000 -1,320 Descending Denver Center
11:05AM 40.3156 -104.7272 121° Southeast 401 461 12,400 -1,800 Descending Denver Center
11:06AM 40.2183 -104.6756 158° South 396 456 10,400 -1,560 Descending Denver Center
11:07AM 40.1225 -104.6836 184° South 313 360 9,200 -1,320 Descending Denver Center
11:08AM 40.0428 -104.6853 181° South 290 334 7,700 -1,140 Descending Denver Center
11:09AM 39.9775 -104.6856 180° South 218 251 6,900 -840 Descending Denver Center
11:10AM 39.9278 -104.6867 181° South 186 214 6,000 -840 Descending Denver Center
11:11AM 39.8922 -104.6867 180° South 144 166 5,300 -720 Descending Denver Center